Station: Cape Wessel  

  Atmospheric Gas Attenuation - ITU Rec 676-11   ----------------- dB/100km -----------------
Date Time Temp RH % AH g/m3 Dew Point Wind Direction Speed kph Gust kph Barometer mB Rainfall Since 9am 24GHz 47GHz 76GHz 122GHz 134GHz 241GHz
09/05 07:50 28.8 77 21.88 24.4 30 33 1010.8 0 46.6 43.5 86.6 229.4 256.9 893.0
09/05 07:40 28.6 79 22.2 24.6 28 32 1010.8 0 47.3 44.3 88.4 234.1 262.6 912.9
09/05 07:30 28.2 80 22 24.4 32 39 1010.7 0 47.0 44.1 87.9 232.8 260.9 906.6
09/05 07:20 27.9 81 21.91 24.3 30 37 1010.6 0 46.8 44.1 87.8 232.5 260.5 905.2
09/05 07:10 27.7 81 21.67 24.1 32 33 1010.5 0 46.3 43.7 86.9 230.0 257.4 894.4
09/05 07:00 27.5 83 21.96 24.4 32 41 1010.3 0 47.0 44.4 88.5 234.4 262.6 912.7
09/05 06:50 27.3 82 21.46 24 33 37 1010.1 0 45.9 43.5 86.3 228.5 255.3 887.3
09/05 06:40 27.3 82 21.46 24 37 41 1010 0 45.9 43.5 86.3 228.4 255.3 887.3
09/05 06:30 27.5 84 22.23 24.6 33 43 1009.9 0 47.6 44.9 89.8 237.8 266.9 927.5
09/05 06:20 27.4 83 21.84 24.3 32 37 1009.9 0 46.7 44.2 88.0 233.1 261.0 907.0
09/05 06:10 27.3 84 21.98 24.4 26 32 1009.8 0 47.1 44.5 88.8 235.2 263.6 915.9
09/05 06:00 27.1 85 22 24.4 32 39 1009.6 0 47.1 44.6 89.1 236.0 264.6 919.4
09/05 05:50 27.1 86 22.26 24.6 30 35 1009.6 0 47.7 45.1 90.4 239.5 268.8 934.0
09/05 05:40 27.1 83 21.48 24 26 30 1009.6 0 46.0 43.6 86.6 229.2 256.3 890.5
09/05 05:30 27.2 83 21.6 24.1 32 46 1009.6 0 46.3 43.8 87.1 230.5 257.8 895.9
09/05 05:20 27.5 83 21.96 24.3 30 33 1009.6 0 47.0 44.3 88.5 234.3 262.5 912.3
09/05 05:10 27.4 83 21.84 24.3 32 35 1009.5 0 46.7 44.1 88.0 233.0 260.9 906.8
09/05 05:00 27.4 82 21.58 24.1 33 41 1009.6 0 46.2 43.6 86.7 229.6 256.8 892.4
09/05 04:50 27.3 82 21.46 24 33 37 1009.6 0 46.0 43.5 86.3 228.4 255.3 887.0
09/05 04:40 27.3 82 21.46 24 30 35 1009.7 0 46.0 43.5 86.3 228.4 255.3 887.1
09/05 04:30 27.4 81 21.31 23.8 32 39 1009.7 0 45.6 43.1 85.4 226.2 252.6 877.7
09/05 04:20 27.4 83 21.84 24.3 33 35 1009.8 0 46.7 44.2 88.0 233.0 261.0 906.9
09/05 04:10 27.3 83 21.72 24.2 32 37 1009.8 0 46.5 44.0 87.5 231.8 259.4 901.5
09/05 04:00 27.2 83 21.6 24.1 32 39 1009.8 0 46.3 43.8 87.1 230.5 257.9 896.1
09/05 03:50 27.1 83 21.48 24 24 30 1009.8 0 46.0 43.6 86.6 229.3 256.3 890.6
09/05 03:40 27.1 81 20.96 23.6 30 35 1009.9 0 44.9 42.6 84.1 222.6 248.1 862.1
09/05 03:30 27.1 81 20.96 23.6 30 39 1010 0 44.9 42.6 84.1 222.6 248.1 862.2
09/05 03:20 27.1 80 20.7 23.3 32 35 1010.1 0 44.4 42.1 82.9 219.3 244.1 848.1
09/05 03:10 27.2 80 20.82 23.4 33 37 1010.1 0 44.6 42.3 83.3 220.6 245.6 853.5
09/05 03:00 27.3 82 21.46 24 28 39 1010.2 0 45.9 43.5 86.3 228.5 255.4 887.4
09/05 02:50 27.3 82 21.46 24 30 35 1010.3 0 45.9 43.5 86.3 228.5 255.4 887.4
09/05 02:40 27.2 82 21.34 23.9 30 37 1010.4 0 45.7 43.3 85.8 227.3 253.8 882.1
09/05 02:30 27.1 81 20.96 23.6 30 39 1010.3 0 44.9 42.6 84.1 222.7 248.2 862.4
09/05 02:20 27.3 81 21.2 23.7 32 35 1010.4 0 45.4 43.0 85.1 225.2 251.3 873.2
09/05 02:10 27.2 81 21.08 23.7 30 33 1010.4 0 45.2 42.8 84.6 223.9 249.7 867.8
09/05 02:00 27.3 81 21.2 23.7 33 41 1010.5 0 45.4 43.0 85.1 225.2 251.3 873.3
09/05 01:50 27.4 83 21.84 24.3 30 33 1010.6 0 46.7 44.2 88.1 233.2 261.1 907.4
09/05 01:40 27.3 82 21.46 24 28 32 1010.6 0 45.9 43.5 86.3 228.5 255.4 887.6
09/05 01:30 27.3 80 20.93 23.5 32 39 1010.8 0 44.8 42.5 83.8 221.8 247.1 858.7
09/05 01:20 27.3 79 20.67 23.3 32 35 1010.8 0 44.3 42.0 82.5 218.5 243.1 844.6
09/05 01:10 27.4 80 21.05 23.6 32 35 1011 0 45.1 42.7 84.3 223.0 248.7 864.2
09/05 01:00 27.3 80 20.93 23.5 32 41 1011 0 44.8 42.5 83.8 221.8 247.1 858.8
09/05 00:50 27.3 80 20.93 23.5 32 37 1011.1 0 44.8 42.5 83.8 221.8 247.2 858.9
09/05 00:40 27.3 79 20.67 23.3 33 39 1011.1 0 44.3 42.0 82.6 218.5 243.1 844.8
09/05 00:30 27.3 80 20.93 23.5 32 41 1011.2 0 44.8 42.5 83.8 221.8 247.2 859.0
09/05 00:20 27.4 79 20.79 23.4 30 35 1011.3 0 44.5 42.2 83.0 219.8 244.7 850.3
09/05 00:10 27.5 79 20.9 23.5 35 39 1011.4 0 44.7 42.4 83.5 220.9 246.1 855.2
09/05 00:00 27.5 80 21.17 23.7 30 39 1011.4 0 45.3 42.9 84.7 224.4 250.3 869.8
08/05 23:50 27.5 79 20.9 23.5 30 35 1011.4 0 44.7 42.4 83.5 220.9 246.1 855.2
08/05 23:40 27.5 79 20.9 23.5 30 35 1011.4 0 44.7 42.4 83.5 220.9 246.1 855.2
08/05 23:30 27.6 80 21.28 23.8 33 43 1011.5 0 45.5 43.0 85.2 225.5 251.7 874.7
08/05 23:20 27.5 78 20.64 23.3 35 43 1011.5 0 44.2 41.9 82.2 217.6 242.1 841.2
08/05 23:10 27.5 78 20.64 23.3 37 43 1011.6 0 44.2 41.9 82.2 217.6 242.1 841.2
08/05 23:00 27.6 80 21.28 23.8 33 41 1011.6 0 45.5 43.0 85.2 225.5 251.7 874.8
08/05 22:50 27.5 79 20.9 23.5 33 37 1011.7 0 44.7 42.4 83.5 221.0 246.1 855.3
08/05 22:40 27.5 79 20.9 23.5 37 39 1011.6 0 44.7 42.4 83.5 220.9 246.1 855.3
08/05 22:30 27.6 78 20.75 23.4 35 41 1011.6 0 44.4 42.0 82.6 218.7 243.5 846.0
08/05 22:20 27.7 79 21.13 23.7 33 39 1011.6 0 45.2 42.7 84.3 223.3 249.0 865.5
08/05 22:10 27.7 80 21.4 23.9 33 37 1011.7 0 45.8 43.2 85.7 226.8 253.3 880.3
08/05 22:00 27.5 78 20.64 23.3 32 41 1011.7 0 44.2 41.9 82.2 217.7 242.1 841.3
08/05 21:50 27.5 80 21.17 23.7 32 35 1011.6 0 45.3 42.9 84.8 224.4 250.3 870.0
08/05 21:40 27.5 80 21.17 23.7 32 39 1011.5 0 45.3 42.9 84.8 224.4 250.3 869.9
08/05 21:30 27.6 79 21.02 23.6 32 39 1011.5 0 45.0 42.5 83.9 222.2 247.6 860.6
08/05 21:20 27.6 78 20.75 23.4 35 41 1011.6 0 44.4 42.0 82.6 218.7 243.5 846.0
08/05 21:10 27.7 80 21.4 23.9 33 37 1011.5 0 45.8 43.2 85.6 226.7 253.3 880.1
08/05 21:00 27.6 81 21.55 24 32 37 1011.5 0 46.1 43.6 86.5 228.9 256.0 889.5
08/05 20:50 27.6 82 21.82 24.2 28 33 1011.5 0 46.7 44.1 87.8 232.4 260.3 904.4
08/05 20:40 27.5 82 21.7 24.1 32 35 1011.4 0 46.4 43.9 87.3 231.2 258.7 898.9
08/05 20:30 27.5 82 21.7 24.1 28 35 1011.3 0 46.4 43.9 87.3 231.2 258.7 898.9
08/05 20:20 27.6 81 21.55 24 30 32 1011.2 0 46.1 43.5 86.5 228.9 255.9 889.4
08/05 20:10 27.6 80 21.28 23.8 32 35 1011 0 45.5 43.0 85.1 225.4 251.6 874.5
08/05 20:00 27.7 80 21.4 23.9 30 37 1010.9 0 45.8 43.2 85.6 226.6 253.2 879.8
08/05 19:50 27.9 80 21.64 24.1 30 35 1010.8 0 46.3 43.5 86.5 229.1 256.2 890.5
08/05 19:40 27.8 81 21.79 24.2 28 32 1010.7 0 46.6 43.9 87.4 231.3 258.9 899.9
08/05 19:30 27.8 79 21.25 23.8 30 39 1010.6 0 45.4 42.8 84.7 224.3 250.4 870.3
08/05 19:20 27.8 79 21.25 23.8 32 33 1010.5 0 45.4 42.8 84.7 224.3 250.4 870.2
08/05 19:10 27.9 81 21.91 24.3 32 35 1010.4 0 46.8 44.1 87.8 232.5 260.4 905.1
08/05 19:00 27.9 81 21.91 24.3 26 33 1010.3 0 46.8 44.1 87.8 232.5 260.4 905.1
08/05 18:50 27.8 82 22.06 24.4 28 33 1010.2 0 47.2 44.4 88.6 234.7 263.2 914.5
08/05 18:40 27.7 80 21.4 23.9 28 33 1010.1 0 45.8 43.2 85.5 226.5 253.0 879.3
08/05 18:30 27.7 78 20.87 23.5 32 41 1009.9 0 44.7 42.1 83.0 219.7 244.7 850.4
08/05 18:20 27.8 79 21.25 23.8 32 33 1009.8 0 45.4 42.8 84.7 224.2 250.3 869.8
08/05 18:10 27.9 81 21.91 24.3 32 33 1009.8 0 46.8 44.0 87.8 232.4 260.3 904.8
08/05 18:00 28 80 21.76 24.2 28 35 1009.7 0 46.5 43.7 86.9 230.1 257.6 895.3
08/05 17:50 28.1 80 21.88 24.3 28 32 1009.6 0 46.7 43.9 87.4 231.4 259.1 900.6
08/05 17:40 28.2 80 22 24.4 30 32 1009.5 0 47.0 44.0 87.8 232.6 260.7 905.9
08/05 17:30 28.3 78 21.57 24.1 32 37 1009.4 0 46.1 43.1 85.6 226.7 253.5 881.2
08/05 17:20 28.6 78 21.92 24.4 28 32 1009.3 0 46.8 43.7 87.0 230.3 258.0 896.6
08/05 17:10 28.7 77 21.76 24.3 32 39 1009.3 0 46.4 43.3 86.1 227.9 255.1 886.7
08/05 17:00 28.4 76 21.13 23.8 30 37 1009.2 0 45.1 42.2 83.4 220.8 246.3 856.1
08/05 16:50 29.1 79 22.82 25.1 28 30 1009.2 0 48.6 45.1 90.7 240.3 270.4 939.9
08/05 16:40 29.6 79 23.45 25.6 24 30 1009.1 0 49.9 46.1 93.2 246.9 278.6 968.4
08/05 16:30 29.4 78 22.9 25.2 26 32 1008.9 0 48.7 45.1 90.7 240.3 270.5 940.4
08/05 16:20 29.2 79 22.94 25.2 22 26 1008.9 0 48.9 45.3 91.2 241.5 271.9 945.1
08/05 16:10 28.6 78 21.92 24.4 28 30 1008.8 0 46.8 43.6 86.9 230.2 257.9 896.3
08/05 16:00 28.5 80 22.36 24.7 30 39 1008.7 0 47.7 44.5 89.2 236.2 265.2 921.6
08/05 15:50 29.8 79 23.7 25.8 30 33 1008.7 0 50.4 46.5 94.2 249.4 281.8 979.5
08/05 15:40 29 79 22.69 25 33 39 1008.6 0 48.4 44.9 90.2 238.8 268.6 933.6
08/05 15:30 30.3 73 22.5 25.1 35 43 1008.5 0 47.8 43.8 87.7 232.3 261.0 907.3
08/05 15:20 30.7 71 22.36 24.8 39 44 1008.5 0 47.4 43.4 86.6 229.3 257.4 895.0

Last Refresh: 09-May-2026 07:56:02

Bureau of Meteorology